BGAC weather

Boggabilla Airstrip
Goondiwindi, New South Wales, Australia

Public forecast

Using degrees Celsius for public forecast. Weather courtesy of forecast.io.

Closest aviation weather report (METAR) to Boggabilla Airstrip

Closest report is Moree Airport, 58.8 nm (108.9 km) SSW. Retrieved 2019/10/15 21:00 UTC (8 minutes ago):

YMOR 152100Z AUTO 04016KT 9999 // NCD 22/15 Q1013

Closest aviation forecast (TAF) to Boggabilla Airstrip

Closest forecast is RAAF Base Amberley, 139.0 nm (257.4 km) ENE. Retrieved 2019/10/15 18:00 UTC (3 hours ago):

TAF YAMB 151604Z 1518/1612 VRB03KT 9999 MIFG FEW015 FM152100 VRB05KT 9999 SCT018 FM160000 36010KT 9999 SCT035 FM160400 02016KT 9999 FEW050 FM161000 04008KT CAVOK PROB30 1518/1521 0500 FG NSC